createdAt,value
2023-03-16T00:03:48.871Z,66.59
2023-03-16T00:13:49.027Z,66.78
2023-03-16T00:23:48.908Z,67.04
2023-03-16T00:33:48.960Z,67.22
2023-03-16T00:43:52.609Z,67.37
2023-03-16T00:53:52.881Z,67.51
2023-03-16T01:03:54.255Z,67.61
2023-03-16T01:13:54.091Z,67.64
2023-03-16T01:23:54.142Z,67.64
2023-03-16T01:33:55.870Z,67.60
2023-03-16T01:43:59.184Z,67.53
2023-03-16T01:53:59.184Z,67.48
2023-03-16T02:03:59.740Z,67.43
2023-03-16T02:14:00.272Z,67.43
2023-03-16T02:24:02.026Z,67.40
2023-03-16T02:34:02.616Z,67.39
2023-03-16T02:44:05.000Z,67.39
2023-03-16T02:54:07.031Z,67.42
2023-03-16T03:04:07.245Z,67.36
2023-03-16T03:14:07.771Z,67.38
2023-03-16T03:24:08.210Z,67.41
2023-03-16T03:34:09.403Z,67.42
2023-03-16T03:44:09.743Z,67.45
2023-03-16T03:54:24.274Z,67.38
2023-03-16T04:04:25.649Z,67.36
2023-03-16T04:14:26.434Z,67.38
2023-03-16T04:24:26.656Z,67.39
2023-03-16T04:34:29.137Z,67.48
2023-03-16T04:44:30.014Z,67.62
2023-03-16T04:54:30.478Z,67.75
2023-03-16T05:04:30.626Z,67.76
2023-03-16T05:14:40.219Z,67.89
2023-03-16T05:24:40.635Z,67.88
2023-03-16T05:34:44.200Z,67.79
2023-03-16T05:44:55.796Z,67.61
2023-03-16T05:54:56.704Z,67.58
2023-03-16T06:04:59.427Z,67.45
2023-03-16T06:14:59.772Z,67.09
2023-03-16T06:25:01.018Z,66.76
2023-03-16T06:35:03.760Z,66.25
2023-03-16T06:45:05.649Z,65.39
2023-03-16T06:55:06.440Z,64.51
2023-03-16T07:05:06.828Z,64.54
2023-03-16T07:15:08.767Z,63.94
2023-03-16T07:25:12.164Z,63.16
2023-03-16T07:35:12.560Z,62.80
2023-03-16T07:45:14.363Z,62.37
2023-03-16T07:55:15.376Z,61.51
2023-03-16T08:05:17.753Z,61.16
2023-03-16T08:15:18.083Z,60.78
2023-03-16T08:25:33.530Z,59.71
2023-03-16T08:35:34.045Z,58.87
2023-03-16T08:45:34.507Z,57.95
2023-03-16T08:55:35.040Z,56.77
2023-03-16T09:05:35.525Z,56.09
2023-03-16T09:15:35.947Z,55.82
2023-03-16T09:25:36.596Z,55.20
2023-03-16T09:35:37.574Z,53.71
2023-03-16T09:45:38.185Z,53.08
2023-03-16T09:55:38.689Z,51.55
2023-03-16T10:05:38.925Z,50.66
2023-03-16T10:15:39.070Z,50.32
2023-03-16T10:25:39.699Z,50.18
2023-03-16T10:35:40.060Z,50.09
2023-03-16T10:45:40.768Z,49.91
2023-03-16T10:55:40.617Z,48.19
2023-03-16T11:05:40.997Z,47.13
2023-03-16T11:15:40.733Z,45.94
2023-03-16T11:25:41.361Z,45.73
2023-03-16T11:35:56.405Z,46.37
2023-03-16T11:45:45.321Z,46.96
2023-03-16T11:55:46.230Z,47.81
2023-03-16T12:05:47.256Z,48.44
2023-03-16T12:15:47.902Z,48.35
2023-03-16T12:25:48.712Z,47.96
2023-03-16T12:35:48.802Z,47.30
2023-03-16T12:45:48.817Z,46.74
2023-03-16T12:55:49.228Z,46.11
2023-03-16T13:05:49.828Z,45.75
2023-03-16T13:15:51.767Z,45.37
2023-03-16T13:25:51.972Z,44.46
2023-03-16T13:35:52.318Z,44.21
2023-03-16T13:45:53.466Z,44.80
2023-03-16T13:55:54.315Z,45.37
2023-03-16T14:05:54.985Z,45.99
2023-03-16T14:15:55.047Z,46.46
2023-03-16T14:25:55.341Z,46.79
2023-03-16T14:35:55.985Z,46.97
2023-03-16T14:45:56.037Z,47.14
2023-03-16T14:55:56.700Z,47.30
2023-03-16T15:06:03.397Z,47.05
2023-03-16T15:16:05.132Z,47.18
2023-03-16T15:26:07.126Z,47.42
2023-03-16T15:36:07.552Z,47.68
2023-03-16T15:46:08.570Z,48.10
2023-03-16T15:56:09.071Z,48.41
2023-03-16T16:06:09.128Z,48.78
2023-03-16T16:16:12.871Z,49.14
2023-03-16T16:26:13.787Z,49.71
2023-03-16T16:36:14.431Z,50.17
2023-03-16T16:46:15.106Z,50.62
2023-03-16T16:56:15.802Z,51.24
2023-03-16T17:06:16.698Z,51.86
2023-03-16T17:16:17.526Z,52.59
2023-03-16T17:26:18.755Z,53.31
2023-03-16T17:36:19.173Z,54.04
2023-03-16T17:46:19.864Z,54.53
2023-03-16T17:56:20.170Z,55.15
2023-03-16T18:06:20.248Z,55.49
2023-03-16T18:16:22.272Z,55.87
2023-03-16T18:26:23.533Z,56.23
2023-03-16T18:36:23.349Z,56.57
2023-03-16T18:46:23.691Z,56.82
2023-03-16T18:56:24.298Z,57.06
2023-03-16T19:06:26.737Z,57.30
2023-03-16T19:16:27.426Z,57.52
2023-03-16T19:26:27.392Z,57.76
2023-03-16T19:36:27.578Z,57.99
2023-03-16T19:46:27.369Z,58.17
2023-03-16T19:56:28.167Z,58.33
2023-03-16T20:06:28.358Z,58.58
2023-03-16T20:16:28.734Z,58.83
2023-03-16T20:26:38.837Z,58.99
2023-03-16T20:36:39.451Z,59.15
2023-03-16T20:46:41.132Z,59.41
2023-03-16T20:56:41.872Z,59.62
2023-03-16T21:06:44.126Z,59.69
2023-03-16T21:16:44.777Z,59.77
2023-03-16T21:26:44.470Z,59.83
2023-03-16T21:36:45.404Z,59.89
2023-03-16T21:46:46.787Z,59.99
2023-03-16T21:56:47.269Z,60.03
2023-03-16T22:06:47.574Z,60.10
2023-03-16T22:16:47.680Z,60.12
2023-03-16T22:26:48.640Z,60.13
2023-03-16T22:36:48.657Z,60.15
2023-03-16T22:46:48.572Z,60.11
2023-03-16T22:56:48.562Z,60.04
2023-03-16T23:06:48.598Z,60.06
2023-03-16T23:16:48.664Z,59.97
2023-03-16T23:26:48.592Z,59.99
2023-03-16T23:36:48.662Z,59.97
2023-03-16T23:46:48.885Z,60.00
2023-03-16T23:56:48.755Z,60.06
